Kent, Illinois
Current Conditions -  °F | °C
As of 12:55 PM on Tuesday 27 Jan 2015 (Local Time) from KFEP Reporting Station
Haze Haze  
Wind Chill: -2°   Ceiling: 1600
Heat Index: -2°   Visibility: 4mi
Dew Point: -4°   Wind: 0mph
Humidity: 88%   Direction: NA
Pressure: 30.2"   Gusts: NA
Location:  42.31°N, 89.9°W
Report Text: KFEP 271855Z AUTO 00000KT 4SM BR SCT008 OVC016 M02/M04 A3020 RMK AO2 T10221040
Loading
Personal Weather Stations






























Interactive Weather Map New forecast layout! Learn more

10-Day Weather Forecast

Advertisements
Track Severe Weather on mobile